createdAt,value
2023-05-06T00:04:32.815Z,101209.59
2023-05-06T00:09:35.193Z,101199.03
2023-05-06T00:14:36.903Z,101187.53
2023-05-06T00:19:40.406Z,101178.69
2023-05-06T00:24:42.544Z,101172.50
2023-05-06T00:29:44.655Z,101169.88
2023-05-06T00:34:48.174Z,101167.22
2023-05-06T00:39:50.291Z,101146.94
2023-05-06T00:44:52.971Z,101158.44
2023-05-06T00:49:56.748Z,101157.56
2023-05-06T00:54:58.918Z,101151.38
2023-05-06T01:00:00.902Z,101144.31
2023-05-06T01:05:05.006Z,101134.59
2023-05-06T01:10:13.661Z,101145.22
2023-05-06T01:15:20.486Z,101142.53
2023-05-06T01:20:25.318Z,101143.44
2023-05-06T01:25:28.744Z,101141.69
2023-05-06T01:30:51.602Z,101139.91
2023-05-06T01:36:02.030Z,101161.97
2023-05-06T01:41:06.292Z,101173.47
2023-05-06T01:46:12.712Z,101169.06
2023-05-06T01:51:14.723Z,101151.38
2023-05-06T01:56:18.292Z,101139.03
2023-05-06T02:01:20.801Z,101139.03
2023-05-06T02:06:23.053Z,101148.75
2023-05-06T02:11:26.260Z,101140.81
2023-05-06T02:16:28.110Z,101146.09
2023-05-06T02:21:30.341Z,101147.88
2023-05-06T02:26:34.787Z,101141.69
2023-05-06T02:31:36.986Z,101146.97
2023-05-06T02:36:39.163Z,101143.47
2023-05-06T02:41:42.786Z,101141.69
2023-05-06T02:46:44.482Z,101144.34
2023-05-06T02:51:46.637Z,101146.09
2023-05-06T02:56:49.724Z,101138.16
2023-05-06T03:01:51.947Z,101126.66
2023-05-06T03:06:54.079Z,101129.31
2023-05-06T03:11:57.854Z,101119.63
2023-05-06T03:17:00.068Z,101124.91
2023-05-06T03:22:02.601Z,101119.59
2023-05-06T03:27:06.088Z,101101.94
2023-05-06T03:32:08.206Z,101104.63
2023-05-06T03:37:10.434Z,101106.41
2023-05-06T03:42:14.056Z,101097.53
2023-05-06T03:47:16.022Z,101101.97
2023-05-06T03:52:18.715Z,101108.13
2023-05-06T03:57:22.159Z,101112.56
2023-05-06T04:02:24.661Z,101108.16
2023-05-06T04:07:26.757Z,101093.13
2023-05-06T04:12:30.251Z,101103.72
2023-05-06T04:17:32.557Z,101105.47
2023-05-06T04:22:34.714Z,101133.72
2023-05-06T04:27:37.878Z,101134.59
2023-05-06T04:32:40.205Z,101139.88
2023-05-06T04:37:42.371Z,101141.63
2023-05-06T04:42:45.926Z,101137.22
2023-05-06T04:47:47.921Z,101151.34
2023-05-06T04:52:49.899Z,101146.03
2023-05-06T04:57:53.040Z,101141.63
2023-05-06T05:02:55.370Z,101147.81
2023-05-06T05:07:57.085Z,101155.75
2023-05-06T05:13:00.511Z,101140.75
2023-05-06T05:18:02.680Z,101154.88
2023-05-06T05:23:04.805Z,101169.91
2023-05-06T05:28:08.251Z,101161.94
2023-05-06T05:33:10.463Z,101167.22
2023-05-06T05:38:12.971Z,101162.84
2023-05-06T05:43:16.034Z,101165.44
2023-05-06T05:48:18.134Z,101171.66
2023-05-06T05:53:20.197Z,101171.66
2023-05-06T05:58:23.385Z,101171.66
2023-05-06T06:03:26.079Z,101184.88
2023-05-06T06:08:28.180Z,101184.88
2023-05-06T06:13:32.087Z,101176.88
2023-05-06T06:18:34.431Z,101187.53
2023-05-06T06:23:36.623Z,101199.00
2023-05-06T06:28:39.994Z,101207.78
2023-05-06T06:33:42.109Z,101188.38
2023-05-06T06:38:45.431Z,101189.28
2023-05-06T06:43:49.081Z,101191.06
2023-05-06T06:48:50.765Z,101203.47
2023-05-06T06:53:52.487Z,101209.63
2023-05-06T06:58:56.043Z,101206.09
2023-05-06T07:03:58.394Z,101200.84
2023-05-06T07:09:00.156Z,101202.63
2023-05-06T07:14:04.153Z,101224.69
2023-05-06T07:19:06.321Z,101214.06
2023-05-06T07:24:08.684Z,101222.91
2023-05-06T07:29:11.797Z,101226.38
2023-05-06T07:34:13.943Z,101231.72
2023-05-06T07:39:15.746Z,101238.78
2023-05-06T07:44:18.865Z,101246.72
2023-05-06T07:49:20.561Z,101242.31
2023-05-06T07:54:22.248Z,101240.53
2023-05-06T07:59:25.405Z,101239.63
2023-05-06T08:04:27.407Z,101256.38
2023-05-06T08:09:29.956Z,101257.28
2023-05-06T08:14:33.621Z,101267.88
2023-05-06T08:19:35.668Z,101264.31
2023-05-06T08:24:37.874Z,101268.75
2023-05-06T08:29:41.360Z,101273.13
2023-05-06T08:34:43.079Z,101280.22
2023-05-06T08:39:44.929Z,101285.50
2023-05-06T08:44:49.075Z,101283.78
2023-05-06T08:49:51.031Z,101297.97
2023-05-06T08:54:56.496Z,101313.00
2023-05-06T09:00:00.545Z,101310.34
2023-05-06T09:05:02.585Z,101317.41
2023-05-06T09:10:07.716Z,101315.66
2023-05-06T09:15:11.396Z,101315.66
2023-05-06T09:20:13.639Z,101309.47
2023-05-06T09:25:15.701Z,101301.47
2023-05-06T09:30:18.998Z,101305.97
2023-05-06T09:35:21.008Z,101315.69
2023-05-06T09:40:24.369Z,101314.81
2023-05-06T09:45:29.098Z,101318.34
2023-05-06T09:50:32.585Z,101318.31
2023-05-06T09:55:35.910Z,101337.75
2023-05-06T10:00:40.246Z,101342.22
2023-05-06T10:05:43.226Z,101341.31
2023-05-06T10:10:45.864Z,101339.56
2023-05-06T10:15:50.367Z,101336.03
2023-05-06T10:20:52.601Z,101331.59
2023-05-06T10:25:57.000Z,101345.72
2023-05-06T10:31:04.833Z,101332.50
2023-05-06T10:36:14.837Z,101338.66
2023-05-06T10:41:17.764Z,101326.31
2023-05-06T10:46:21.338Z,101335.13
2023-05-06T10:51:27.757Z,101336.91
2023-05-06T10:56:31.216Z,101336.91
2023-05-06T11:01:35.000Z,101337.78
2023-05-06T11:06:40.632Z,101339.56
2023-05-06T11:11:59.980Z,101349.28
2023-05-06T11:17:04.194Z,101346.63
2023-05-06T11:22:07.251Z,101345.75
2023-05-06T11:27:10.327Z,101363.41
2023-05-06T11:32:22.732Z,101369.59
2023-05-06T11:37:26.060Z,101370.47
2023-05-06T11:42:28.797Z,101378.44
2023-05-06T11:47:31.939Z,101384.63
2023-05-06T11:52:35.732Z,101389.94
2023-05-06T11:57:42.396Z,101405.88
2023-05-06T12:02:46.093Z,101405.88
2023-05-06T12:07:48.625Z,101407.63
2023-05-06T12:12:51.324Z,101412.94
2023-05-06T12:17:54.981Z,101420.00
2023-05-06T12:23:06.207Z,101425.28
2023-05-06T12:28:14.349Z,101431.47
2023-05-06T12:33:17.748Z,101436.75
2023-05-06T12:38:19.545Z,101437.63
2023-05-06T12:43:28.865Z,101445.50
2023-05-06T12:48:32.858Z,101455.16
2023-05-06T12:53:35.398Z,101451.66
2023-05-06T12:58:37.682Z,101454.31
2023-05-06T13:03:41.227Z,101466.59
2023-05-06T13:08:43.540Z,101453.44
2023-05-06T13:13:45.483Z,101459.63
2023-05-06T13:18:49.115Z,101461.31
2023-05-06T13:23:50.975Z,101456.09
2023-05-06T13:28:53.575Z,101465.84
2023-05-06T13:33:57.067Z,101474.69
2023-05-06T13:38:59.184Z,101468.47
2023-05-06T13:44:01.569Z,101467.66
2023-05-06T13:49:05.107Z,101476.50
2023-05-06T13:54:06.849Z,101478.31
2023-05-06T13:59:09.012Z,101481.78
2023-05-06T14:04:12.604Z,101481.81
2023-05-06T14:09:14.581Z,101469.44
2023-05-06T14:14:16.346Z,101478.34
2023-05-06T14:19:19.656Z,101466.84
2023-05-06T14:24:22.305Z,101470.38
2023-05-06T14:29:24.024Z,101456.25
2023-05-06T14:34:27.562Z,101454.47
2023-05-06T14:39:29.539Z,101464.13
2023-05-06T14:44:31.237Z,101479.16
2023-05-06T14:49:34.639Z,101478.25
2023-05-06T14:54:36.423Z,101490.56
2023-05-06T14:59:38.854Z,101486.06
2023-05-06T15:04:42.189Z,101488.81
2023-05-06T15:09:44.481Z,101495.78
2023-05-06T15:14:46.708Z,101490.53
2023-05-06T15:19:50.053Z,101493.22
2023-05-06T15:24:51.804Z,101502.97
2023-05-06T15:29:53.547Z,101505.47
2023-05-06T15:34:56.856Z,101512.53
2023-05-06T15:39:59.058Z,101510.84
2023-05-06T15:45:00.847Z,101512.59
2023-05-06T15:50:14.080Z,101511.66
2023-05-06T15:55:25.113Z,101516.97
2023-05-06T16:00:28.588Z,101512.50
2023-05-06T16:05:31.685Z,101515.16
2023-05-06T16:10:33.666Z,101529.16
2023-05-06T16:15:35.427Z,101539.63
2023-05-06T16:20:38.710Z,101537.91
2023-05-06T16:25:41.107Z,101536.13
2023-05-06T16:30:42.800Z,101533.44
2023-05-06T16:35:47.170Z,101536.09
2023-05-06T16:40:49.382Z,101528.16
2023-05-06T16:45:51.379Z,101536.03
2023-05-06T16:50:54.546Z,101526.22
2023-05-06T16:55:56.747Z,101524.56
2023-05-06T17:00:58.493Z,101543.16
2023-05-06T17:06:01.871Z,101543.16
2023-05-06T17:11:06.672Z,101552.88
2023-05-06T17:16:08.541Z,101545.91
2023-05-06T17:21:11.720Z,101550.38
2023-05-06T17:26:13.650Z,101545.03
2023-05-06T17:31:15.420Z,101550.28
2023-05-06T17:36:19.743Z,101551.25
2023-05-06T17:41:21.428Z,101552.06
2023-05-06T17:46:23.140Z,101550.25
2023-05-06T17:51:26.915Z,101553.78
2023-05-06T17:56:28.625Z,101562.59
2023-05-06T18:01:30.665Z,101564.34
2023-05-06T18:06:33.847Z,101575.88
2023-05-06T18:11:37.347Z,101574.09
2023-05-06T18:16:39.491Z,101571.44
2023-05-06T18:21:42.978Z,101577.63
2023-05-06T18:26:46.103Z,101581.97
2023-05-06T18:31:48.229Z,101593.50
2023-05-06T18:36:51.905Z,101594.38
2023-05-06T18:41:54.365Z,101594.31
2023-05-06T18:46:56.741Z,101605.72
2023-05-06T18:52:00.332Z,101606.56
2023-05-06T18:57:02.063Z,101605.75
2023-05-06T19:02:05.756Z,101610.06
2023-05-06T19:07:09.558Z,101617.13
2023-05-06T19:12:11.630Z,101622.47
2023-05-06T19:17:13.655Z,101616.31
2023-05-06T19:22:17.187Z,101616.19
2023-05-06T19:27:19.308Z,101611.81
2023-05-06T19:32:22.446Z,101622.41
2023-05-06T19:37:25.843Z,101618.94
2023-05-06T19:42:27.591Z,101625.94
2023-05-06T19:47:29.744Z,101632.09
2023-05-06T19:52:33.316Z,101627.72
2023-05-06T19:57:35.304Z,101626.81
2023-05-06T20:02:37.601Z,101631.28
2023-05-06T20:07:40.866Z,101633.91
2023-05-06T20:12:42.882Z,101633.00
2023-05-06T20:17:44.796Z,101632.13
2023-05-06T20:22:48.467Z,101636.50
2023-05-06T20:27:50.158Z,101634.75
2023-05-06T20:32:52.230Z,101628.53
2023-05-06T20:37:55.460Z,101633.91
2023-05-06T20:42:57.171Z,101647.06
2023-05-06T20:47:59.062Z,101655.91
2023-05-06T20:53:02.215Z,101649.78
2023-05-06T20:58:04.329Z,101650.72
2023-05-06T21:03:06.176Z,101653.31
2023-05-06T21:08:09.560Z,101655.00
2023-05-06T21:13:11.528Z,101656.00
2023-05-06T21:18:13.791Z,101655.03
2023-05-06T21:23:17.403Z,101647.91
2023-05-06T21:28:19.312Z,101646.94
2023-05-06T21:33:21.386Z,101654.84
2023-05-06T21:38:25.412Z,101646.13
2023-05-06T21:43:27.771Z,101646.97
2023-05-06T21:48:30.337Z,101656.63
2023-05-06T21:53:33.367Z,101667.28
2023-05-06T21:58:35.832Z,101670.78
2023-05-06T22:03:38.078Z,101667.22
2023-05-06T22:08:42.053Z,101670.78
2023-05-06T22:13:44.327Z,101680.50
2023-05-06T22:18:46.022Z,101674.38
2023-05-06T22:23:49.111Z,101682.28
2023-05-06T22:28:51.052Z,101676.84
2023-05-06T22:33:54.414Z,101682.16
2023-05-06T22:38:57.465Z,101684.69
2023-05-06T22:44:00.230Z,101673.19
2023-05-06T22:49:02.301Z,101684.72
2023-05-06T22:54:05.472Z,101683.91
2023-05-06T22:59:07.459Z,101683.09
2023-05-06T23:04:09.236Z,101682.22
2023-05-06T23:09:12.304Z,101682.19
2023-05-06T23:14:14.656Z,101684.88
2023-05-06T23:19:16.759Z,101684.03
2023-05-06T23:24:19.774Z,101688.34
2023-05-06T23:29:21.863Z,101675.16
2023-05-06T23:34:23.800Z,101678.69
2023-05-06T23:39:26.874Z,101689.28
2023-05-06T23:44:29.432Z,101684.91
2023-05-06T23:49:32.228Z,101690.22
2023-05-06T23:54:36.426Z,101685.84
2023-05-06T23:59:38.201Z,101695.50
